Terminal Aerodrome Forecast
Issued by NWS

Home | Current Version | Previous Version | Text Only | Print | Product List | Glossary On
Versions: 1 2 3 4 5 6 7 8 9 10 11 12 13 14 15 16 17 18 19
000
FTUS41 KBTV 242320
TAFSLK
TAF
KSLK 242320Z 2500/2524 17008KT 2SM -RA BR OVC025 WS020/19040KT
      TEMPO 2500/2501 1SM -RA BR OVC015
     FM250200 19010KT 5SM -SHRA BR SCT008 OVC012
      TEMPO 2502/2504 2SM BR BKN004
     FM251000 22025G40KT 3SM RA BR SCT008 OVC018
     FM251300 24025G42KT P6SM -SHRA BKN028 OVC035
     FM251700 24025G40KT P6SM -SHRASN OVC035=

USA.gov is the U.S. government's official web portal to all federal, state and local government web resources and services.